sensor_id;sensor_type;location;lat;lon;timestamp;P1;durP1;ratioP1;P2;durP2;ratioP2
35150;SDS011;55720;51.972;4.624;2023-04-29T00:00:36;44.85;;;19.08;;
35150;SDS011;55720;51.972;4.624;2023-04-29T00:03:01;42.35;;;20.08;;
35150;SDS011;55720;51.972;4.624;2023-04-29T00:05:27;36.95;;;18.88;;
35150;SDS011;55720;51.972;4.624;2023-04-29T00:07:52;38.38;;;19.20;;
35150;SDS011;55720;51.972;4.624;2023-04-29T00:10:18;44.95;;;19.58;;
35150;SDS011;55720;51.972;4.624;2023-04-29T00:12:43;37.45;;;19.75;;
35150;SDS011;55720;51.972;4.624;2023-04-29T00:15:09;38.15;;;19.83;;
35150;SDS011;55720;51.972;4.624;2023-04-29T00:17:34;46.83;;;19.85;;
35150;SDS011;55720;51.972;4.624;2023-04-29T00:20:00;40.35;;;20.20;;
35150;SDS011;55720;51.972;4.624;2023-04-29T00:22:26;45.67;;;20.15;;
35150;SDS011;55720;51.972;4.624;2023-04-29T00:24:52;41.10;;;20.23;;
35150;SDS011;55720;51.972;4.624;2023-04-29T00:27:17;49.50;;;21.50;;
35150;SDS011;55720;51.972;4.624;2023-04-29T00:29:43;50.90;;;21.63;;
35150;SDS011;55720;51.972;4.624;2023-04-29T00:32:08;41.30;;;19.95;;
35150;SDS011;55720;51.972;4.624;2023-04-29T00:34:34;36.90;;;21.17;;
35150;SDS011;55720;51.972;4.624;2023-04-29T00:36:59;41.50;;;19.77;;
35150;SDS011;55720;51.972;4.624;2023-04-29T00:39:25;38.63;;;20.73;;
35150;SDS011;55720;51.972;4.624;2023-04-29T00:41:51;47.50;;;20.48;;
35150;SDS011;55720;51.972;4.624;2023-04-29T00:44:16;45.42;;;21.38;;
35150;SDS011;55720;51.972;4.624;2023-04-29T00:46:42;43.78;;;20.42;;
35150;SDS011;55720;51.972;4.624;2023-04-29T00:49:07;42.58;;;22.73;;
35150;SDS011;55720;51.972;4.624;2023-04-29T00:51:35;42.08;;;21.77;;
35150;SDS011;55720;51.972;4.624;2023-04-29T00:54:02;39.92;;;21.20;;
35150;SDS011;55720;51.972;4.624;2023-04-29T00:56:28;36.80;;;21.25;;
35150;SDS011;55720;51.972;4.624;2023-04-29T00:58:56;43.55;;;20.98;;
35150;SDS011;55720;51.972;4.624;2023-04-29T01:01:22;40.38;;;21.98;;
35150;SDS011;55720;51.972;4.624;2023-04-29T01:03:48;36.83;;;20.90;;
35150;SDS011;55720;51.972;4.624;2023-04-29T01:06:36;40.78;;;22.15;;
35150;SDS011;55720;51.972;4.624;2023-04-29T01:12:10;46.72;;;21.13;;
35150;SDS011;55720;51.972;4.624;2023-04-29T01:14:46;43.03;;;21.77;;
35150;SDS011;55720;51.972;4.624;2023-04-29T01:17:18;42.35;;;21.75;;
35150;SDS011;55720;51.972;4.624;2023-04-29T01:19:51;40.47;;;21.25;;
35150;SDS011;55720;51.972;4.624;2023-04-29T01:22:20;41.00;;;22.02;;
35150;SDS011;55720;51.972;4.624;2023-04-29T01:24:46;44.60;;;21.92;;
35150;SDS011;55720;51.972;4.624;2023-04-29T01:38:35;39.90;;;19.85;;
35150;SDS011;55720;51.972;4.624;2023-04-29T01:41:15;41.40;;;20.25;;
35150;SDS011;55720;51.972;4.624;2023-04-29T01:43:48;39.83;;;21.38;;
35150;SDS011;55720;51.972;4.624;2023-04-29T01:46:16;37.03;;;19.63;;
35150;SDS011;55720;51.972;4.624;2023-04-29T01:48:44;37.67;;;19.48;;
35150;SDS011;55720;51.972;4.624;2023-04-29T01:51:10;40.90;;;22.05;;
35150;SDS011;55720;51.972;4.624;2023-04-29T01:53:35;41.92;;;20.65;;
35150;SDS011;55720;51.972;4.624;2023-04-29T01:56:01;38.05;;;20.17;;
35150;SDS011;55720;51.972;4.624;2023-04-29T01:58:26;39.83;;;20.63;;
35150;SDS011;55720;51.972;4.624;2023-04-29T02:00:52;43.67;;;20.65;;
35150;SDS011;55720;51.972;4.624;2023-04-29T02:03:18;40.50;;;20.30;;
35150;SDS011;55720;51.972;4.624;2023-04-29T02:05:44;35.40;;;19.10;;
35150;SDS011;55720;51.972;4.624;2023-04-29T02:08:09;35.28;;;19.98;;
35150;SDS011;55720;51.972;4.624;2023-04-29T02:10:35;45.30;;;20.10;;
35150;SDS011;55720;51.972;4.624;2023-04-29T02:13:00;35.60;;;20.17;;
35150;SDS011;55720;51.972;4.624;2023-04-29T02:15:26;36.80;;;19.73;;
35150;SDS011;55720;51.972;4.624;2023-04-29T02:17:52;37.50;;;20.90;;
35150;SDS011;55720;51.972;4.624;2023-04-29T02:20:18;34.42;;;20.00;;
35150;SDS011;55720;51.972;4.624;2023-04-29T02:22:44;51.78;;;21.60;;
35150;SDS011;55720;51.972;4.624;2023-04-29T02:25:09;35.65;;;20.75;;
35150;SDS011;55720;51.972;4.624;2023-04-29T02:27:35;39.08;;;19.58;;
35150;SDS011;55720;51.972;4.624;2023-04-29T02:30:01;42.28;;;19.10;;
35150;SDS011;55720;51.972;4.624;2023-04-29T02:32:26;36.28;;;18.95;;
35150;SDS011;55720;51.972;4.624;2023-04-29T02:34:52;38.40;;;18.92;;
35150;SDS011;55720;51.972;4.624;2023-04-29T02:37:17;42.05;;;19.23;;
35150;SDS011;55720;51.972;4.624;2023-04-29T02:39:42;40.03;;;19.33;;
35150;SDS011;55720;51.972;4.624;2023-04-29T02:42:08;36.08;;;18.63;;
35150;SDS011;55720;51.972;4.624;2023-04-29T02:44:33;35.47;;;18.60;;
35150;SDS011;55720;51.972;4.624;2023-04-29T02:46:59;38.10;;;19.15;;
35150;SDS011;55720;51.972;4.624;2023-04-29T02:49:24;33.00;;;18.38;;
35150;SDS011;55720;51.972;4.624;2023-04-29T02:51:49;31.95;;;18.33;;
35150;SDS011;55720;51.972;4.624;2023-04-29T02:54:15;30.02;;;16.83;;
35150;SDS011;55720;51.972;4.624;2023-04-29T02:56:41;31.45;;;17.98;;
35150;SDS011;55720;51.972;4.624;2023-04-29T02:59:06;31.33;;;17.33;;
35150;SDS011;55720;51.972;4.624;2023-04-29T03:01:32;33.22;;;17.65;;
35150;SDS011;55720;51.972;4.624;2023-04-29T03:03:57;30.48;;;16.88;;
35150;SDS011;55720;51.972;4.624;2023-04-29T03:06:23;30.38;;;17.67;;
35150;SDS011;55720;51.972;4.624;2023-04-29T03:08:48;37.38;;;18.65;;
35150;SDS011;55720;51.972;4.624;2023-04-29T03:11:14;34.47;;;17.80;;
35150;SDS011;55720;51.972;4.624;2023-04-29T03:13:39;31.95;;;17.13;;
35150;SDS011;55720;51.972;4.624;2023-04-29T03:16:05;28.58;;;17.15;;
35150;SDS011;55720;51.972;4.624;2023-04-29T03:18:30;32.15;;;17.25;;
35150;SDS011;55720;51.972;4.624;2023-04-29T03:20:56;30.45;;;17.65;;
35150;SDS011;55720;51.972;4.624;2023-04-29T03:23:21;33.88;;;17.60;;
35150;SDS011;55720;51.972;4.624;2023-04-29T03:25:47;34.15;;;17.85;;
35150;SDS011;55720;51.972;4.624;2023-04-29T03:28:13;33.45;;;17.77;;
35150;SDS011;55720;51.972;4.624;2023-04-29T03:30:39;40.65;;;18.23;;
35150;SDS011;55720;51.972;4.624;2023-04-29T03:33:04;34.67;;;18.38;;
35150;SDS011;55720;51.972;4.624;2023-04-29T03:35:29;36.13;;;18.40;;
35150;SDS011;55720;51.972;4.624;2023-04-29T03:37:55;32.65;;;17.30;;
35150;SDS011;55720;51.972;4.624;2023-04-29T03:40:20;33.03;;;17.17;;
35150;SDS011;55720;51.972;4.624;2023-04-29T03:42:45;29.50;;;17.20;;
35150;SDS011;55720;51.972;4.624;2023-04-29T03:45:11;28.98;;;16.95;;
35150;SDS011;55720;51.972;4.624;2023-04-29T03:47:39;30.40;;;17.35;;
35150;SDS011;55720;51.972;4.624;2023-04-29T03:50:05;31.60;;;18.08;;
35150;SDS011;55720;51.972;4.624;2023-04-29T03:52:32;31.90;;;17.58;;
35150;SDS011;55720;51.972;4.624;2023-04-29T03:55:00;31.75;;;17.95;;
35150;SDS011;55720;51.972;4.624;2023-04-29T03:57:26;34.00;;;16.50;;
35150;SDS011;55720;51.972;4.624;2023-04-29T03:59:51;30.33;;;17.55;;
35150;SDS011;55720;51.972;4.624;2023-04-29T04:02:17;30.23;;;16.70;;
35150;SDS011;55720;51.972;4.624;2023-04-29T04:04:42;32.72;;;17.55;;
35150;SDS011;55720;51.972;4.624;2023-04-29T04:07:07;36.53;;;17.88;;
35150;SDS011;55720;51.972;4.624;2023-04-29T04:09:33;40.95;;;17.90;;
35150;SDS011;55720;51.972;4.624;2023-04-29T04:11:58;35.53;;;17.88;;
35150;SDS011;55720;51.972;4.624;2023-04-29T04:14:24;33.88;;;19.00;;
35150;SDS011;55720;51.972;4.624;2023-04-29T04:16:50;40.42;;;19.08;;
35150;SDS011;55720;51.972;4.624;2023-04-29T04:19:15;34.22;;;18.63;;
35150;SDS011;55720;51.972;4.624;2023-04-29T04:21:41;29.73;;;17.70;;
35150;SDS011;55720;51.972;4.624;2023-04-29T04:24:06;38.53;;;18.55;;
35150;SDS011;55720;51.972;4.624;2023-04-29T04:26:32;32.70;;;18.77;;
35150;SDS011;55720;51.972;4.624;2023-04-29T04:28:58;31.38;;;18.08;;
35150;SDS011;55720;51.972;4.624;2023-04-29T04:31:23;32.40;;;17.20;;
35150;SDS011;55720;51.972;4.624;2023-04-29T04:33:49;39.88;;;18.38;;
35150;SDS011;55720;51.972;4.624;2023-04-29T04:36:15;36.53;;;18.65;;
35150;SDS011;55720;51.972;4.624;2023-04-29T04:38:40;30.88;;;18.08;;
35150;SDS011;55720;51.972;4.624;2023-04-29T04:41:06;31.65;;;17.13;;
35150;SDS011;55720;51.972;4.624;2023-04-29T04:43:34;32.17;;;16.98;;
35150;SDS011;55720;51.972;4.624;2023-04-29T04:46:00;34.78;;;18.30;;
35150;SDS011;55720;51.972;4.624;2023-04-29T04:48:33;38.53;;;18.13;;
35150;SDS011;55720;51.972;4.624;2023-04-29T04:50:58;34.42;;;18.10;;
35150;SDS011;55720;51.972;4.624;2023-04-29T04:53:23;38.78;;;18.67;;
35150;SDS011;55720;51.972;4.624;2023-04-29T04:55:49;36.47;;;17.63;;
35150;SDS011;55720;51.972;4.624;2023-04-29T04:58:14;33.92;;;17.60;;
35150;SDS011;55720;51.972;4.624;2023-04-29T05:00:44;39.75;;;17.73;;
35150;SDS011;55720;51.972;4.624;2023-04-29T05:03:09;40.08;;;18.30;;
35150;SDS011;55720;51.972;4.624;2023-04-29T05:05:35;40.80;;;18.15;;
35150;SDS011;55720;51.972;4.624;2023-04-29T05:08:00;40.65;;;19.27;;
35150;SDS011;55720;51.972;4.624;2023-04-29T05:10:26;32.67;;;17.70;;
35150;SDS011;55720;51.972;4.624;2023-04-29T05:12:51;41.42;;;17.95;;
35150;SDS011;55720;51.972;4.624;2023-04-29T05:15:16;44.33;;;18.98;;
35150;SDS011;55720;51.972;4.624;2023-04-29T05:17:43;41.67;;;18.77;;
35150;SDS011;55720;51.972;4.624;2023-04-29T05:20:08;43.17;;;20.60;;
35150;SDS011;55720;51.972;4.624;2023-04-29T05:22:33;41.08;;;19.25;;
35150;SDS011;55720;51.972;4.624;2023-04-29T05:24:59;40.97;;;19.40;;
35150;SDS011;55720;51.972;4.624;2023-04-29T05:27:27;44.30;;;19.70;;
35150;SDS011;55720;51.972;4.624;2023-04-29T05:29:52;44.17;;;18.77;;
35150;SDS011;55720;51.972;4.624;2023-04-29T05:32:18;39.47;;;17.98;;
35150;SDS011;55720;51.972;4.624;2023-04-29T05:34:43;40.47;;;19.73;;
35150;SDS011;55720;51.972;4.624;2023-04-29T05:37:08;47.88;;;20.52;;
35150;SDS011;55720;51.972;4.624;2023-04-29T05:39:34;44.40;;;19.58;;
35150;SDS011;55720;51.972;4.624;2023-04-29T05:41:59;46.60;;;19.73;;
35150;SDS011;55720;51.972;4.624;2023-04-29T05:44:26;48.80;;;20.27;;
35150;SDS011;55720;51.972;4.624;2023-04-29T05:46:51;44.90;;;19.73;;
35150;SDS011;55720;51.972;4.624;2023-04-29T05:49:16;40.22;;;20.08;;
35150;SDS011;55720;51.972;4.624;2023-04-29T05:51:42;41.10;;;19.08;;
35150;SDS011;55720;51.972;4.624;2023-04-29T05:54:07;39.10;;;19.77;;
35150;SDS011;55720;51.972;4.624;2023-04-29T05:56:32;43.75;;;18.80;;
35150;SDS011;55720;51.972;4.624;2023-04-29T05:58:58;42.15;;;17.95;;
35150;SDS011;55720;51.972;4.624;2023-04-29T06:01:23;45.42;;;18.45;;
35150;SDS011;55720;51.972;4.624;2023-04-29T06:03:48;39.00;;;18.08;;
35150;SDS011;55720;51.972;4.624;2023-04-29T06:06:14;38.00;;;18.13;;
35150;SDS011;55720;51.972;4.624;2023-04-29T06:08:40;39.63;;;18.27;;
35150;SDS011;55720;51.972;4.624;2023-04-29T06:11:05;38.22;;;17.88;;
35150;SDS011;55720;51.972;4.624;2023-04-29T06:13:31;37.67;;;17.05;;
35150;SDS011;55720;51.972;4.624;2023-04-29T06:15:57;34.97;;;17.13;;
35150;SDS011;55720;51.972;4.624;2023-04-29T06:18:22;34.33;;;17.02;;
35150;SDS011;55720;51.972;4.624;2023-04-29T06:20:48;35.75;;;16.98;;
35150;SDS011;55720;51.972;4.624;2023-04-29T06:23:13;36.38;;;16.58;;
35150;SDS011;55720;51.972;4.624;2023-04-29T06:25:38;30.17;;;15.70;;
35150;SDS011;55720;51.972;4.624;2023-04-29T06:28:04;32.55;;;16.00;;
35150;SDS011;55720;51.972;4.624;2023-04-29T06:30:29;32.72;;;15.52;;
35150;SDS011;55720;51.972;4.624;2023-04-29T06:32:55;34.33;;;15.52;;
35150;SDS011;55720;51.972;4.624;2023-04-29T06:35:20;23.85;;;14.25;;
35150;SDS011;55720;51.972;4.624;2023-04-29T06:37:46;27.77;;;13.70;;
35150;SDS011;55720;51.972;4.624;2023-04-29T06:40:11;25.88;;;13.30;;
35150;SDS011;55720;51.972;4.624;2023-04-29T06:42:37;22.48;;;12.98;;
35150;SDS011;55720;51.972;4.624;2023-04-29T06:45:02;23.80;;;13.10;;
35150;SDS011;55720;51.972;4.624;2023-04-29T06:47:28;20.83;;;12.35;;
35150;SDS011;55720;51.972;4.624;2023-04-29T06:49:54;26.08;;;12.73;;
35150;SDS011;55720;51.972;4.624;2023-04-29T06:52:20;21.58;;;12.43;;
35150;SDS011;55720;51.972;4.624;2023-04-29T06:54:45;26.70;;;11.73;;
35150;SDS011;55720;51.972;4.624;2023-04-29T06:57:11;20.25;;;11.13;;
35150;SDS011;55720;51.972;4.624;2023-04-29T06:59:36;19.83;;;11.18;;
35150;SDS011;55720;51.972;4.624;2023-04-29T07:02:02;21.52;;;11.45;;
35150;SDS011;55720;51.972;4.624;2023-04-29T07:04:27;17.60;;;10.55;;
35150;SDS011;55720;51.972;4.624;2023-04-29T07:06:52;15.65;;;10.85;;
35150;SDS011;55720;51.972;4.624;2023-04-29T07:09:18;17.40;;;10.35;;
35150;SDS011;55720;51.972;4.624;2023-04-29T07:11:43;22.63;;;10.20;;
35150;SDS011;55720;51.972;4.624;2023-04-29T07:14:09;18.67;;;10.65;;
35150;SDS011;55720;51.972;4.624;2023-04-29T07:16:34;17.55;;;10.77;;
35150;SDS011;55720;51.972;4.624;2023-04-29T07:19:00;15.90;;;10.13;;
35150;SDS011;55720;51.972;4.624;2023-04-29T07:21:25;16.48;;;10.10;;
35150;SDS011;55720;51.972;4.624;2023-04-29T07:23:51;15.77;;;9.50;;
35150;SDS011;55720;51.972;4.624;2023-04-29T07:26:17;14.48;;;9.00;;
35150;SDS011;55720;51.972;4.624;2023-04-29T07:28:43;14.02;;;8.93;;
35150;SDS011;55720;51.972;4.624;2023-04-29T07:31:09;16.40;;;8.07;;
35150;SDS011;55720;51.972;4.624;2023-04-29T07:33:36;15.85;;;7.70;;
35150;SDS011;55720;51.972;4.624;2023-04-29T07:36:01;12.93;;;7.82;;
35150;SDS011;55720;51.972;4.624;2023-04-29T07:38:28;15.52;;;8.43;;
35150;SDS011;55720;51.972;4.624;2023-04-29T07:40:53;10.23;;;7.78;;
35150;SDS011;55720;51.972;4.624;2023-04-29T07:43:19;13.13;;;7.65;;
35150;SDS011;55720;51.972;4.624;2023-04-29T07:45:45;12.77;;;7.45;;
35150;SDS011;55720;51.972;4.624;2023-04-29T07:48:11;11.75;;;7.60;;
35150;SDS011;55720;51.972;4.624;2023-04-29T07:50:36;10.90;;;8.45;;
35150;SDS011;55720;51.972;4.624;2023-04-29T07:53:03;13.13;;;7.57;;
35150;SDS011;55720;51.972;4.624;2023-04-29T07:55:29;12.07;;;6.75;;
35150;SDS011;55720;51.972;4.624;2023-04-29T07:57:56;12.63;;;7.30;;
35150;SDS011;55720;51.972;4.624;2023-04-29T08:00:22;10.32;;;6.38;;
35150;SDS011;55720;51.972;4.624;2023-04-29T08:02:51;8.43;;;6.40;;
35150;SDS011;55720;51.972;4.624;2023-04-29T08:05:17;10.67;;;7.40;;
35150;SDS011;55720;51.972;4.624;2023-04-29T08:07:44;11.50;;;7.22;;
35150;SDS011;55720;51.972;4.624;2023-04-29T08:10:09;11.30;;;7.00;;
35150;SDS011;55720;51.972;4.624;2023-04-29T08:12:35;10.18;;;6.60;;
35150;SDS011;55720;51.972;4.624;2023-04-29T08:15:00;9.88;;;6.75;;
35150;SDS011;55720;51.972;4.624;2023-04-29T08:17:26;8.30;;;6.13;;
35150;SDS011;55720;51.972;4.624;2023-04-29T08:19:51;7.15;;;6.20;;
35150;SDS011;55720;51.972;4.624;2023-04-29T08:22:17;8.20;;;6.57;;
35150;SDS011;55720;51.972;4.624;2023-04-29T08:24:43;10.07;;;6.43;;
35150;SDS011;55720;51.972;4.624;2023-04-29T08:27:09;7.28;;;6.00;;
35150;SDS011;55720;51.972;4.624;2023-04-29T08:29:34;7.70;;;6.05;;
35150;SDS011;55720;51.972;4.624;2023-04-29T08:32:00;7.82;;;6.22;;
35150;SDS011;55720;51.972;4.624;2023-04-29T08:34:25;6.63;;;5.68;;
35150;SDS011;55720;51.972;4.624;2023-04-29T08:36:51;7.95;;;5.43;;
35150;SDS011;55720;51.972;4.624;2023-04-29T08:39:17;7.68;;;4.82;;
35150;SDS011;55720;51.972;4.624;2023-04-29T08:41:42;7.45;;;4.20;;
35150;SDS011;55720;51.972;4.624;2023-04-29T08:44:13;8.00;;;4.88;;
35150;SDS011;55720;51.972;4.624;2023-04-29T08:46:39;6.80;;;4.93;;
35150;SDS011;55720;51.972;4.624;2023-04-29T08:49:05;7.30;;;5.03;;
35150;SDS011;55720;51.972;4.624;2023-04-29T08:51:31;8.50;;;4.63;;
35150;SDS011;55720;51.972;4.624;2023-04-29T08:53:58;6.50;;;5.07;;
35150;SDS011;55720;51.972;4.624;2023-04-29T08:56:24;8.15;;;5.78;;
35150;SDS011;55720;51.972;4.624;2023-04-29T08:58:51;9.20;;;5.38;;
35150;SDS011;55720;51.972;4.624;2023-04-29T09:01:19;11.75;;;6.10;;
35150;SDS011;55720;51.972;4.624;2023-04-29T09:03:49;10.57;;;5.38;;
35150;SDS011;55720;51.972;4.624;2023-04-29T09:06:20;7.78;;;5.38;;
35150;SDS011;55720;51.972;4.624;2023-04-29T09:08:46;8.73;;;6.00;;
35150;SDS011;55720;51.972;4.624;2023-04-29T09:11:12;11.32;;;5.78;;
35150;SDS011;55720;51.972;4.624;2023-04-29T09:13:38;10.02;;;5.70;;
35150;SDS011;55720;51.972;4.624;2023-04-29T09:16:04;7.72;;;5.50;;
35150;SDS011;55720;51.972;4.624;2023-04-29T09:18:50;8.50;;;5.68;;
35150;SDS011;55720;51.972;4.624;2023-04-29T09:23:43;6.78;;;5.72;;
35150;SDS011;55720;51.972;4.624;2023-04-29T09:26:09;10.30;;;6.20;;
35150;SDS011;55720;51.972;4.624;2023-04-29T09:28:35;7.43;;;6.07;;
35150;SDS011;55720;51.972;4.624;2023-04-29T09:31:01;13.38;;;6.43;;
35150;SDS011;55720;51.972;4.624;2023-04-29T09:33:31;11.80;;;5.93;;
35150;SDS011;55720;51.972;4.624;2023-04-29T09:36:13;9.70;;;6.05;;
35150;SDS011;55720;51.972;4.624;2023-04-29T09:38:57;11.80;;;6.68;;
35150;SDS011;55720;51.972;4.624;2023-04-29T09:41:23;7.22;;;5.80;;
35150;SDS011;55720;51.972;4.624;2023-04-29T09:44:01;11.27;;;5.65;;
35150;SDS011;55720;51.972;4.624;2023-04-29T09:48:53;10.80;;;6.25;;
35150;SDS011;55720;51.972;4.624;2023-04-29T09:51:19;12.82;;;6.43;;
35150;SDS011;55720;51.972;4.624;2023-04-29T09:53:45;12.98;;;6.15;;
35150;SDS011;55720;51.972;4.624;2023-04-29T09:56:10;8.40;;;6.40;;
35150;SDS011;55720;51.972;4.624;2023-04-29T09:58:35;11.55;;;6.28;;
35150;SDS011;55720;51.972;4.624;2023-04-29T10:01:02;8.05;;;5.63;;
35150;SDS011;55720;51.972;4.624;2023-04-29T10:03:32;8.50;;;6.75;;
35150;SDS011;55720;51.972;4.624;2023-04-29T10:08:24;6.85;;;6.05;;
35150;SDS011;55720;51.972;4.624;2023-04-29T10:10:51;11.52;;;6.50;;
35150;SDS011;55720;51.972;4.624;2023-04-29T10:15:50;9.07;;;6.07;;
35150;SDS011;55720;51.972;4.624;2023-04-29T10:18:23;10.52;;;6.80;;
35150;SDS011;55720;51.972;4.624;2023-04-29T10:20:54;13.73;;;6.53;;
35150;SDS011;55720;51.972;4.624;2023-04-29T10:23:22;13.80;;;6.90;;
35150;SDS011;55720;51.972;4.624;2023-04-29T10:25:49;7.05;;;6.30;;
35150;SDS011;55720;51.972;4.624;2023-04-29T10:28:16;14.75;;;6.75;;
35150;SDS011;55720;51.972;4.624;2023-04-29T10:30:44;9.35;;;7.18;;
35150;SDS011;55720;51.972;4.624;2023-04-29T10:36:44;10.77;;;6.07;;
35150;SDS011;55720;51.972;4.624;2023-04-29T10:39:11;9.23;;;6.35;;
35150;SDS011;55720;51.972;4.624;2023-04-29T10:41:45;8.02;;;6.35;;
35150;SDS011;55720;51.972;4.624;2023-04-29T10:44:11;8.25;;;6.80;;
35150;SDS011;55720;51.972;4.624;2023-04-29T10:46:37;9.27;;;6.90;;
35150;SDS011;55720;51.972;4.624;2023-04-29T10:49:03;8.18;;;6.25;;
35150;SDS011;55720;51.972;4.624;2023-04-29T10:54:13;10.95;;;6.70;;
35150;SDS011;55720;51.972;4.624;2023-04-29T10:56:46;13.15;;;6.80;;
35150;SDS011;55720;51.972;4.624;2023-04-29T10:59:20;11.82;;;6.82;;
35150;SDS011;55720;51.972;4.624;2023-04-29T11:02:00;7.03;;;6.30;;
35150;SDS011;55720;51.972;4.624;2023-04-29T11:04:26;6.82;;;5.65;;
35150;SDS011;55720;51.972;4.624;2023-04-29T11:06:52;8.23;;;6.63;;
35150;SDS011;55720;51.972;4.624;2023-04-29T11:09:20;10.52;;;5.82;;
35150;SDS011;55720;51.972;4.624;2023-04-29T11:14:31;7.22;;;5.95;;
35150;SDS011;55720;51.972;4.624;2023-04-29T11:17:03;12.18;;;6.30;;
35150;SDS011;55720;51.972;4.624;2023-04-29T11:19:34;8.75;;;6.50;;
35150;SDS011;55720;51.972;4.624;2023-04-29T11:22:11;9.10;;;6.45;;
35150;SDS011;55720;51.972;4.624;2023-04-29T11:27:20;8.57;;;5.35;;
35150;SDS011;55720;51.972;4.624;2023-04-29T11:29:50;6.77;;;5.47;;
35150;SDS011;55720;51.972;4.624;2023-04-29T11:32:20;7.85;;;5.47;;
35150;SDS011;55720;51.972;4.624;2023-04-29T11:34:47;5.20;;;4.63;;
35150;SDS011;55720;51.972;4.624;2023-04-29T11:37:17;4.40;;;4.00;;
35150;SDS011;55720;51.972;4.624;2023-04-29T11:39:44;8.75;;;4.38;;
35150;SDS011;55720;51.972;4.624;2023-04-29T11:42:09;12.15;;;5.13;;
35150;SDS011;55720;51.972;4.624;2023-04-29T11:44:35;5.93;;;4.97;;
35150;SDS011;55720;51.972;4.624;2023-04-29T11:47:07;6.38;;;4.80;;
35150;SDS011;55720;51.972;4.624;2023-04-29T11:49:33;7.43;;;5.43;;
35150;SDS011;55720;51.972;4.624;2023-04-29T11:51:59;6.63;;;4.70;;
35150;SDS011;55720;51.972;4.624;2023-04-29T11:54:25;5.20;;;4.68;;
35150;SDS011;55720;51.972;4.624;2023-04-29T11:56:54;6.60;;;4.70;;
35150;SDS011;55720;51.972;4.624;2023-04-29T11:59:21;6.85;;;4.45;;
35150;SDS011;55720;51.972;4.624;2023-04-29T12:01:48;5.93;;;4.47;;
35150;SDS011;55720;51.972;4.624;2023-04-29T12:04:14;5.65;;;4.30;;
35150;SDS011;55720;51.972;4.624;2023-04-29T12:06:40;5.72;;;4.43;;
35150;SDS011;55720;51.972;4.624;2023-04-29T12:09:06;5.50;;;4.63;;
35150;SDS011;55720;51.972;4.624;2023-04-29T12:11:32;6.15;;;4.00;;
35150;SDS011;55720;51.972;4.624;2023-04-29T12:13:59;5.90;;;4.57;;
35150;SDS011;55720;51.972;4.624;2023-04-29T12:16:26;7.97;;;5.20;;
35150;SDS011;55720;51.972;4.624;2023-04-29T12:18:53;5.95;;;5.00;;
35150;SDS011;55720;51.972;4.624;2023-04-29T12:21:22;6.20;;;5.30;;
35150;SDS011;55720;51.972;4.624;2023-04-29T12:23:49;7.47;;;5.22;;
35150;SDS011;55720;51.972;4.624;2023-04-29T12:26:15;8.32;;;4.88;;
35150;SDS011;55720;51.972;4.624;2023-04-29T12:28:41;5.22;;;4.72;;
35150;SDS011;55720;51.972;4.624;2023-04-29T12:31:07;7.38;;;5.45;;
35150;SDS011;55720;51.972;4.624;2023-04-29T12:33:35;8.05;;;5.35;;
35150;SDS011;55720;51.972;4.624;2023-04-29T12:36:00;7.70;;;5.15;;
35150;SDS011;55720;51.972;4.624;2023-04-29T12:38:27;9.00;;;5.95;;
35150;SDS011;55720;51.972;4.624;2023-04-29T12:40:54;10.63;;;5.75;;
35150;SDS011;55720;51.972;4.624;2023-04-29T12:43:26;5.72;;;5.00;;
35150;SDS011;55720;51.972;4.624;2023-04-29T12:46:02;7.97;;;5.60;;
35150;SDS011;55720;51.972;4.624;2023-04-29T12:48:31;8.35;;;6.05;;
35150;SDS011;55720;51.972;4.624;2023-04-29T12:50:58;5.40;;;3.83;;
35150;SDS011;55720;51.972;4.624;2023-04-29T12:53:24;10.15;;;6.53;;
35150;SDS011;55720;51.972;4.624;2023-04-29T12:55:51;11.48;;;7.00;;
35150;SDS011;55720;51.972;4.624;2023-04-29T12:58:17;8.50;;;7.00;;
35150;SDS011;55720;51.972;4.624;2023-04-29T13:00:42;8.95;;;6.60;;
35150;SDS011;55720;51.972;4.624;2023-04-29T13:03:08;8.75;;;6.38;;
35150;SDS011;55720;51.972;4.624;2023-04-29T13:05:33;12.93;;;7.20;;
35150;SDS011;55720;51.972;4.624;2023-04-29T13:07:58;11.10;;;7.25;;
35150;SDS011;55720;51.972;4.624;2023-04-29T13:10:24;12.43;;;7.28;;
35150;SDS011;55720;51.972;4.624;2023-04-29T13:12:49;10.52;;;7.20;;
35150;SDS011;55720;51.972;4.624;2023-04-29T13:15:15;10.20;;;6.68;;
35150;SDS011;55720;51.972;4.624;2023-04-29T13:17:40;14.80;;;7.32;;
35150;SDS011;55720;51.972;4.624;2023-04-29T13:20:06;11.63;;;7.05;;
35150;SDS011;55720;51.972;4.624;2023-04-29T13:22:32;16.08;;;7.43;;
35150;SDS011;55720;51.972;4.624;2023-04-29T13:24:58;7.40;;;6.60;;
35150;SDS011;55720;51.972;4.624;2023-04-29T13:27:23;11.50;;;7.78;;
35150;SDS011;55720;51.972;4.624;2023-04-29T13:29:49;9.85;;;7.97;;
35150;SDS011;55720;51.972;4.624;2023-04-29T13:32:14;10.20;;;7.50;;
35150;SDS011;55720;51.972;4.624;2023-04-29T13:34:40;10.13;;;7.60;;
35150;SDS011;55720;51.972;4.624;2023-04-29T13:37:07;12.15;;;7.30;;
35150;SDS011;55720;51.972;4.624;2023-04-29T13:39:33;11.13;;;7.03;;
35150;SDS011;55720;51.972;4.624;2023-04-29T13:41:58;13.13;;;7.57;;
35150;SDS011;55720;51.972;4.624;2023-04-29T13:44:24;9.85;;;6.47;;
35150;SDS011;55720;51.972;4.624;2023-04-29T13:46:49;8.50;;;6.28;;
35150;SDS011;55720;51.972;4.624;2023-04-29T13:49:15;11.52;;;6.20;;
35150;SDS011;55720;51.972;4.624;2023-04-29T13:51:41;7.22;;;6.30;;
35150;SDS011;55720;51.972;4.624;2023-04-29T13:54:06;12.23;;;5.80;;
35150;SDS011;55720;51.972;4.624;2023-04-29T13:56:32;8.70;;;6.05;;
35150;SDS011;55720;51.972;4.624;2023-04-29T13:58:57;12.10;;;6.38;;
35150;SDS011;55720;51.972;4.624;2023-04-29T14:01:22;11.82;;;6.43;;
35150;SDS011;55720;51.972;4.624;2023-04-29T14:03:48;10.63;;;6.15;;
35150;SDS011;55720;51.972;4.624;2023-04-29T14:06:13;12.98;;;6.22;;
35150;SDS011;55720;51.972;4.624;2023-04-29T14:08:39;12.00;;;6.45;;
35150;SDS011;55720;51.972;4.624;2023-04-29T14:11:05;10.75;;;6.18;;
35150;SDS011;55720;51.972;4.624;2023-04-29T14:13:31;8.65;;;6.13;;
35150;SDS011;55720;51.972;4.624;2023-04-29T14:15:56;8.48;;;6.07;;
35150;SDS011;55720;51.972;4.624;2023-04-29T14:18:23;8.93;;;6.53;;
35150;SDS011;55720;51.972;4.624;2023-04-29T14:20:49;12.45;;;6.97;;
35150;SDS011;55720;51.972;4.624;2023-04-29T14:23:14;7.65;;;6.82;;
35150;SDS011;55720;51.972;4.624;2023-04-29T14:25:40;9.15;;;6.25;;
35150;SDS011;55720;51.972;4.624;2023-04-29T14:28:05;10.25;;;7.13;;
35150;SDS011;55720;51.972;4.624;2023-04-29T14:30:30;14.30;;;6.53;;
35150;SDS011;55720;51.972;4.624;2023-04-29T14:32:56;11.10;;;6.25;;
35150;SDS011;55720;51.972;4.624;2023-04-29T14:35:21;11.75;;;6.03;;
35150;SDS011;55720;51.972;4.624;2023-04-29T14:37:47;12.93;;;6.78;;
35150;SDS011;55720;51.972;4.624;2023-04-29T14:40:12;9.85;;;6.45;;
35150;SDS011;55720;51.972;4.624;2023-04-29T14:42:37;9.05;;;6.35;;
35150;SDS011;55720;51.972;4.624;2023-04-29T14:45:03;9.25;;;5.60;;
35150;SDS011;55720;51.972;4.624;2023-04-29T14:47:29;8.35;;;5.60;;
35150;SDS011;55720;51.972;4.624;2023-04-29T14:49:54;8.75;;;5.45;;
35150;SDS011;55720;51.972;4.624;2023-04-29T14:52:20;11.48;;;6.30;;
35150;SDS011;55720;51.972;4.624;2023-04-29T14:54:45;10.77;;;5.63;;
35150;SDS011;55720;51.972;4.624;2023-04-29T14:57:11;5.50;;;4.68;;
35150;SDS011;55720;51.972;4.624;2023-04-29T14:59:36;12.32;;;5.68;;
35150;SDS011;55720;51.972;4.624;2023-04-29T15:02:02;8.60;;;5.38;;